sensor_id;sensor_type;location;lat;lon;timestamp;P1;durP1;ratioP1;P2;durP2;ratioP2
16484;SDS011;8353;47.856;12.344;2023-02-08T00:02:13;11.83;;;6.40;;
16484;SDS011;8353;47.856;12.344;2023-02-08T00:04:44;9.30;;;6.47;;
16484;SDS011;8353;47.856;12.344;2023-02-08T00:07:14;9.33;;;6.23;;
16484;SDS011;8353;47.856;12.344;2023-02-08T00:09:46;11.53;;;6.83;;
16484;SDS011;8353;47.856;12.344;2023-02-08T00:12:16;9.13;;;6.07;;
16484;SDS011;8353;47.856;12.344;2023-02-08T00:14:46;12.07;;;7.73;;
16484;SDS011;8353;47.856;12.344;2023-02-08T00:17:16;10.90;;;6.87;;
16484;SDS011;8353;47.856;12.344;2023-02-08T00:19:47;12.20;;;7.73;;
16484;SDS011;8353;47.856;12.344;2023-02-08T00:22:18;8.80;;;5.93;;
16484;SDS011;8353;47.856;12.344;2023-02-08T00:24:49;10.20;;;6.83;;
16484;SDS011;8353;47.856;12.344;2023-02-08T00:27:20;10.47;;;7.03;;
16484;SDS011;8353;47.856;12.344;2023-02-08T00:29:50;11.80;;;7.53;;
16484;SDS011;8353;47.856;12.344;2023-02-08T00:32:21;12.50;;;7.50;;
16484;SDS011;8353;47.856;12.344;2023-02-08T00:34:51;11.37;;;6.73;;
16484;SDS011;8353;47.856;12.344;2023-02-08T00:37:22;11.87;;;6.77;;
16484;SDS011;8353;47.856;12.344;2023-02-08T00:39:54;10.50;;;6.37;;
16484;SDS011;8353;47.856;12.344;2023-02-08T00:42:26;12.33;;;7.10;;
16484;SDS011;8353;47.856;12.344;2023-02-08T00:44:58;11.37;;;7.57;;
16484;SDS011;8353;47.856;12.344;2023-02-08T00:47:28;13.30;;;7.40;;
16484;SDS011;8353;47.856;12.344;2023-02-08T00:49:58;10.37;;;6.67;;
16484;SDS011;8353;47.856;12.344;2023-02-08T00:52:29;10.30;;;6.07;;
16484;SDS011;8353;47.856;12.344;2023-02-08T00:55:00;12.63;;;8.13;;
16484;SDS011;8353;47.856;12.344;2023-02-08T00:57:31;14.07;;;8.03;;
16484;SDS011;8353;47.856;12.344;2023-02-08T01:00:02;11.23;;;6.73;;
16484;SDS011;8353;47.856;12.344;2023-02-08T01:02:33;12.43;;;7.17;;
16484;SDS011;8353;47.856;12.344;2023-02-08T01:05:06;14.60;;;8.20;;
16484;SDS011;8353;47.856;12.344;2023-02-08T01:07:36;12.23;;;7.77;;
16484;SDS011;8353;47.856;12.344;2023-02-08T01:10:09;10.27;;;6.83;;
16484;SDS011;8353;47.856;12.344;2023-02-08T01:12:41;11.63;;;7.60;;
16484;SDS011;8353;47.856;12.344;2023-02-08T01:15:11;9.50;;;6.87;;
16484;SDS011;8353;47.856;12.344;2023-02-08T01:17:41;12.47;;;7.00;;
16484;SDS011;8353;47.856;12.344;2023-02-08T01:20:12;10.23;;;6.77;;
16484;SDS011;8353;47.856;12.344;2023-02-08T01:22:42;10.07;;;5.93;;
16484;SDS011;8353;47.856;12.344;2023-02-08T01:25:14;11.90;;;6.43;;
16484;SDS011;8353;47.856;12.344;2023-02-08T01:27:45;10.17;;;6.43;;
16484;SDS011;8353;47.856;12.344;2023-02-08T01:30:16;11.33;;;6.90;;
16484;SDS011;8353;47.856;12.344;2023-02-08T01:32:46;12.53;;;7.77;;
16484;SDS011;8353;47.856;12.344;2023-02-08T01:35:17;11.73;;;6.90;;
16484;SDS011;8353;47.856;12.344;2023-02-08T01:37:48;9.50;;;6.03;;
16484;SDS011;8353;47.856;12.344;2023-02-08T01:40:19;9.67;;;6.03;;
16484;SDS011;8353;47.856;12.344;2023-02-08T01:42:49;10.40;;;5.83;;
16484;SDS011;8353;47.856;12.344;2023-02-08T01:45:23;11.70;;;7.70;;
16484;SDS011;8353;47.856;12.344;2023-02-08T01:47:57;9.73;;;6.40;;
16484;SDS011;8353;47.856;12.344;2023-02-08T01:50:35;9.97;;;6.63;;
16484;SDS011;8353;47.856;12.344;2023-02-08T01:53:13;11.10;;;6.67;;
16484;SDS011;8353;47.856;12.344;2023-02-08T01:55:47;11.93;;;8.13;;
16484;SDS011;8353;47.856;12.344;2023-02-08T01:58:21;8.27;;;5.60;;
16484;SDS011;8353;47.856;12.344;2023-02-08T02:00:53;9.40;;;5.60;;
16484;SDS011;8353;47.856;12.344;2023-02-08T02:03:24;9.00;;;6.23;;
16484;SDS011;8353;47.856;12.344;2023-02-08T02:05:55;10.27;;;6.10;;
16484;SDS011;8353;47.856;12.344;2023-02-08T02:08:30;9.93;;;6.40;;
16484;SDS011;8353;47.856;12.344;2023-02-08T02:11:02;9.37;;;6.37;;
16484;SDS011;8353;47.856;12.344;2023-02-08T02:13:33;7.87;;;5.63;;
16484;SDS011;8353;47.856;12.344;2023-02-08T02:16:05;15.33;;;8.37;;
16484;SDS011;8353;47.856;12.344;2023-02-08T02:18:51;9.70;;;6.67;;
16484;SDS011;8353;47.856;12.344;2023-02-08T02:21:28;9.33;;;6.40;;
16484;SDS011;8353;47.856;12.344;2023-02-08T02:24:24;9.03;;;6.10;;
16484;SDS011;8353;47.856;12.344;2023-02-08T02:27:25;8.07;;;5.60;;
16484;SDS011;8353;47.856;12.344;2023-02-08T02:30:25;9.67;;;6.27;;
16484;SDS011;8353;47.856;12.344;2023-02-08T02:36:08;13.00;;;6.87;;
16484;SDS011;8353;47.856;12.344;2023-02-08T02:38:49;10.70;;;6.87;;
16484;SDS011;8353;47.856;12.344;2023-02-08T02:41:36;12.07;;;6.60;;
16484;SDS011;8353;47.856;12.344;2023-02-08T02:44:30;9.97;;;6.97;;
16484;SDS011;8353;47.856;12.344;2023-02-08T02:47:08;10.60;;;7.20;;
16484;SDS011;8353;47.856;12.344;2023-02-08T02:49:46;11.07;;;6.13;;
16484;SDS011;8353;47.856;12.344;2023-02-08T02:52:22;10.63;;;6.03;;
16484;SDS011;8353;47.856;12.344;2023-02-08T02:55:02;10.83;;;6.63;;
16484;SDS011;8353;47.856;12.344;2023-02-08T02:57:37;9.67;;;6.53;;
16484;SDS011;8353;47.856;12.344;2023-02-08T03:00:10;8.80;;;6.20;;
16484;SDS011;8353;47.856;12.344;2023-02-08T03:02:48;10.60;;;6.50;;
16484;SDS011;8353;47.856;12.344;2023-02-08T03:05:19;10.43;;;6.50;;
16484;SDS011;8353;47.856;12.344;2023-02-08T03:07:57;10.17;;;5.90;;
16484;SDS011;8353;47.856;12.344;2023-02-08T03:10:45;11.43;;;7.07;;
16484;SDS011;8353;47.856;12.344;2023-02-08T03:13:26;9.57;;;6.53;;
16484;SDS011;8353;47.856;12.344;2023-02-08T03:16:13;8.87;;;5.80;;
16484;SDS011;8353;47.856;12.344;2023-02-08T03:18:52;10.73;;;7.80;;
16484;SDS011;8353;47.856;12.344;2023-02-08T03:21:34;9.87;;;6.90;;
16484;SDS011;8353;47.856;12.344;2023-02-08T03:24:16;10.37;;;6.70;;
16484;SDS011;8353;47.856;12.344;2023-02-08T03:26:53;10.27;;;6.73;;
16484;SDS011;8353;47.856;12.344;2023-02-08T03:29:34;8.97;;;6.03;;
16484;SDS011;8353;47.856;12.344;2023-02-08T03:32:12;11.43;;;7.07;;
16484;SDS011;8353;47.856;12.344;2023-02-08T03:34:47;9.30;;;6.40;;
16484;SDS011;8353;47.856;12.344;2023-02-08T03:37:25;10.57;;;6.07;;
16484;SDS011;8353;47.856;12.344;2023-02-08T03:40:00;8.80;;;6.13;;
16484;SDS011;8353;47.856;12.344;2023-02-08T03:42:35;9.30;;;5.60;;
16484;SDS011;8353;47.856;12.344;2023-02-08T03:45:09;8.40;;;5.83;;
16484;SDS011;8353;47.856;12.344;2023-02-08T03:47:45;9.03;;;6.50;;
16484;SDS011;8353;47.856;12.344;2023-02-08T03:50:20;8.67;;;5.90;;
16484;SDS011;8353;47.856;12.344;2023-02-08T03:52:53;10.60;;;6.40;;
16484;SDS011;8353;47.856;12.344;2023-02-08T03:55:25;9.30;;;6.13;;
16484;SDS011;8353;47.856;12.344;2023-02-08T03:58:01;9.40;;;5.80;;
16484;SDS011;8353;47.856;12.344;2023-02-08T04:00:36;9.03;;;5.97;;
16484;SDS011;8353;47.856;12.344;2023-02-08T04:03:11;8.53;;;5.67;;
16484;SDS011;8353;47.856;12.344;2023-02-08T04:05:43;8.70;;;5.57;;
16484;SDS011;8353;47.856;12.344;2023-02-08T04:08:16;8.97;;;5.80;;
16484;SDS011;8353;47.856;12.344;2023-02-08T04:10:46;10.63;;;6.83;;
16484;SDS011;8353;47.856;12.344;2023-02-08T04:13:17;9.53;;;6.37;;
16484;SDS011;8353;47.856;12.344;2023-02-08T04:15:48;10.27;;;5.90;;
16484;SDS011;8353;47.856;12.344;2023-02-08T04:18:18;9.90;;;6.97;;
16484;SDS011;8353;47.856;12.344;2023-02-08T04:20:48;8.83;;;5.53;;
16484;SDS011;8353;47.856;12.344;2023-02-08T04:23:20;9.47;;;5.97;;
16484;SDS011;8353;47.856;12.344;2023-02-08T04:25:50;11.40;;;6.73;;
16484;SDS011;8353;47.856;12.344;2023-02-08T04:28:20;7.17;;;4.97;;
16484;SDS011;8353;47.856;12.344;2023-02-08T04:30:53;8.30;;;5.80;;
16484;SDS011;8353;47.856;12.344;2023-02-08T04:33:24;10.27;;;6.07;;
16484;SDS011;8353;47.856;12.344;2023-02-08T04:35:55;9.90;;;6.30;;
16484;SDS011;8353;47.856;12.344;2023-02-08T04:38:27;8.57;;;6.00;;
16484;SDS011;8353;47.856;12.344;2023-02-08T04:40:57;9.67;;;5.60;;
16484;SDS011;8353;47.856;12.344;2023-02-08T04:43:27;7.47;;;5.37;;
16484;SDS011;8353;47.856;12.344;2023-02-08T04:45:58;12.00;;;7.77;;
16484;SDS011;8353;47.856;12.344;2023-02-08T04:48:29;8.30;;;5.60;;
16484;SDS011;8353;47.856;12.344;2023-02-08T04:50:59;9.53;;;6.20;;
16484;SDS011;8353;47.856;12.344;2023-02-08T04:53:30;9.70;;;5.83;;
16484;SDS011;8353;47.856;12.344;2023-02-08T04:56:01;8.10;;;5.40;;
16484;SDS011;8353;47.856;12.344;2023-02-08T04:58:33;9.20;;;6.13;;
16484;SDS011;8353;47.856;12.344;2023-02-08T05:01:04;8.03;;;5.53;;
16484;SDS011;8353;47.856;12.344;2023-02-08T05:03:35;8.33;;;5.33;;
16484;SDS011;8353;47.856;12.344;2023-02-08T05:06:06;10.63;;;6.13;;
16484;SDS011;8353;47.856;12.344;2023-02-08T05:08:38;9.20;;;5.50;;
16484;SDS011;8353;47.856;12.344;2023-02-08T05:11:09;8.80;;;5.97;;
16484;SDS011;8353;47.856;12.344;2023-02-08T05:13:39;10.33;;;5.23;;
16484;SDS011;8353;47.856;12.344;2023-02-08T05:16:09;8.53;;;5.47;;
16484;SDS011;8353;47.856;12.344;2023-02-08T05:18:39;8.60;;;5.30;;
16484;SDS011;8353;47.856;12.344;2023-02-08T05:21:10;10.27;;;5.87;;
16484;SDS011;8353;47.856;12.344;2023-02-08T05:23:41;11.17;;;6.80;;
16484;SDS011;8353;47.856;12.344;2023-02-08T05:26:12;7.83;;;5.23;;
16484;SDS011;8353;47.856;12.344;2023-02-08T05:28:42;13.10;;;7.30;;
16484;SDS011;8353;47.856;12.344;2023-02-08T05:31:14;8.47;;;5.37;;
16484;SDS011;8353;47.856;12.344;2023-02-08T05:33:47;8.87;;;6.20;;
16484;SDS011;8353;47.856;12.344;2023-02-08T05:36:18;8.00;;;5.73;;
16484;SDS011;8353;47.856;12.344;2023-02-08T05:38:50;8.17;;;4.87;;
16484;SDS011;8353;47.856;12.344;2023-02-08T05:41:20;9.40;;;6.10;;
16484;SDS011;8353;47.856;12.344;2023-02-08T05:43:51;8.43;;;5.53;;
16484;SDS011;8353;47.856;12.344;2023-02-08T05:46:22;13.00;;;7.40;;
16484;SDS011;8353;47.856;12.344;2023-02-08T05:48:52;8.37;;;5.57;;
16484;SDS011;8353;47.856;12.344;2023-02-08T05:51:23;10.07;;;5.63;;
16484;SDS011;8353;47.856;12.344;2023-02-08T05:53:55;10.63;;;7.00;;
16484;SDS011;8353;47.856;12.344;2023-02-08T05:56:24;9.40;;;6.53;;
16484;SDS011;8353;47.856;12.344;2023-02-08T05:58:55;8.87;;;5.77;;
16484;SDS011;8353;47.856;12.344;2023-02-08T06:01:28;10.10;;;6.50;;
16484;SDS011;8353;47.856;12.344;2023-02-08T06:03:59;13.10;;;5.33;;
16484;SDS011;8353;47.856;12.344;2023-02-08T06:06:30;10.53;;;6.77;;
16484;SDS011;8353;47.856;12.344;2023-02-08T06:09:01;8.23;;;5.80;;
16484;SDS011;8353;47.856;12.344;2023-02-08T06:11:32;9.77;;;6.73;;
16484;SDS011;8353;47.856;12.344;2023-02-08T06:14:03;9.43;;;6.13;;
16484;SDS011;8353;47.856;12.344;2023-02-08T06:16:34;10.60;;;7.50;;
16484;SDS011;8353;47.856;12.344;2023-02-08T06:19:05;12.40;;;6.90;;
16484;SDS011;8353;47.856;12.344;2023-02-08T06:21:36;11.17;;;7.20;;
16484;SDS011;8353;47.856;12.344;2023-02-08T06:24:08;10.43;;;5.97;;
16484;SDS011;8353;47.856;12.344;2023-02-08T06:26:38;14.13;;;7.03;;
16484;SDS011;8353;47.856;12.344;2023-02-08T06:29:09;8.37;;;5.63;;
16484;SDS011;8353;47.856;12.344;2023-02-08T06:31:39;10.23;;;6.40;;
16484;SDS011;8353;47.856;12.344;2023-02-08T06:34:09;14.07;;;8.27;;
16484;SDS011;8353;47.856;12.344;2023-02-08T06:36:40;12.03;;;7.67;;
16484;SDS011;8353;47.856;12.344;2023-02-08T06:39:12;16.90;;;8.47;;
16484;SDS011;8353;47.856;12.344;2023-02-08T06:41:42;8.13;;;5.73;;
16484;SDS011;8353;47.856;12.344;2023-02-08T06:44:12;13.27;;;7.83;;
16484;SDS011;8353;47.856;12.344;2023-02-08T06:46:43;15.33;;;8.83;;
16484;SDS011;8353;47.856;12.344;2023-02-08T06:49:14;13.07;;;8.10;;
16484;SDS011;8353;47.856;12.344;2023-02-08T06:51:44;13.87;;;7.43;;
16484;SDS011;8353;47.856;12.344;2023-02-08T06:54:16;10.83;;;6.50;;
16484;SDS011;8353;47.856;12.344;2023-02-08T06:56:47;11.00;;;6.80;;
16484;SDS011;8353;47.856;12.344;2023-02-08T06:59:17;11.60;;;6.77;;
16484;SDS011;8353;47.856;12.344;2023-02-08T07:01:48;12.50;;;7.07;;
16484;SDS011;8353;47.856;12.344;2023-02-08T07:04:19;12.17;;;7.10;;
16484;SDS011;8353;47.856;12.344;2023-02-08T07:06:49;10.40;;;6.00;;
16484;SDS011;8353;47.856;12.344;2023-02-08T07:09:21;9.07;;;6.03;;
16484;SDS011;8353;47.856;12.344;2023-02-08T07:11:51;10.17;;;6.97;;
16484;SDS011;8353;47.856;12.344;2023-02-08T07:14:22;8.77;;;5.70;;
16484;SDS011;8353;47.856;12.344;2023-02-08T07:16:52;13.73;;;7.10;;
16484;SDS011;8353;47.856;12.344;2023-02-08T07:19:23;8.23;;;5.67;;
16484;SDS011;8353;47.856;12.344;2023-02-08T07:21:53;10.87;;;6.93;;
16484;SDS011;8353;47.856;12.344;2023-02-08T07:24:25;10.53;;;6.23;;
16484;SDS011;8353;47.856;12.344;2023-02-08T07:26:56;10.67;;;6.93;;
16484;SDS011;8353;47.856;12.344;2023-02-08T07:29:27;7.90;;;5.20;;
16484;SDS011;8353;47.856;12.344;2023-02-08T07:31:58;14.70;;;7.73;;
16484;SDS011;8353;47.856;12.344;2023-02-08T07:34:29;13.43;;;7.93;;
16484;SDS011;8353;47.856;12.344;2023-02-08T07:37:02;9.57;;;6.50;;
16484;SDS011;8353;47.856;12.344;2023-02-08T07:39:34;13.33;;;7.47;;
16484;SDS011;8353;47.856;12.344;2023-02-08T07:42:04;10.27;;;6.53;;
16484;SDS011;8353;47.856;12.344;2023-02-08T07:44:36;11.70;;;8.03;;
16484;SDS011;8353;47.856;12.344;2023-02-08T07:47:07;11.27;;;6.67;;
16484;SDS011;8353;47.856;12.344;2023-02-08T07:49:39;10.13;;;6.47;;
16484;SDS011;8353;47.856;12.344;2023-02-08T07:52:08;9.57;;;6.60;;
16484;SDS011;8353;47.856;12.344;2023-02-08T07:54:40;11.80;;;7.10;;
16484;SDS011;8353;47.856;12.344;2023-02-08T07:57:11;11.23;;;6.60;;
16484;SDS011;8353;47.856;12.344;2023-02-08T07:59:48;14.57;;;8.37;;
16484;SDS011;8353;47.856;12.344;2023-02-08T08:02:18;10.13;;;5.93;;
16484;SDS011;8353;47.856;12.344;2023-02-08T08:04:49;13.83;;;8.97;;
16484;SDS011;8353;47.856;12.344;2023-02-08T08:07:21;13.80;;;8.00;;
16484;SDS011;8353;47.856;12.344;2023-02-08T08:09:53;10.47;;;6.87;;
16484;SDS011;8353;47.856;12.344;2023-02-08T08:12:24;13.10;;;8.37;;
16484;SDS011;8353;47.856;12.344;2023-02-08T08:14:54;11.37;;;6.93;;
16484;SDS011;8353;47.856;12.344;2023-02-08T08:17:24;11.30;;;7.03;;
16484;SDS011;8353;47.856;12.344;2023-02-08T08:19:55;12.53;;;7.50;;
16484;SDS011;8353;47.856;12.344;2023-02-08T08:22:25;8.80;;;6.17;;
16484;SDS011;8353;47.856;12.344;2023-02-08T08:24:57;9.17;;;6.40;;
16484;SDS011;8353;47.856;12.344;2023-02-08T08:27:28;14.40;;;8.80;;
16484;SDS011;8353;47.856;12.344;2023-02-08T08:29:58;11.57;;;7.70;;
16484;SDS011;8353;47.856;12.344;2023-02-08T08:32:30;11.73;;;7.53;;
16484;SDS011;8353;47.856;12.344;2023-02-08T08:35:00;14.30;;;7.47;;
16484;SDS011;8353;47.856;12.344;2023-02-08T08:37:30;11.23;;;6.63;;
16484;SDS011;8353;47.856;12.344;2023-02-08T08:40:03;13.50;;;7.67;;
16484;SDS011;8353;47.856;12.344;2023-02-08T08:42:35;11.80;;;7.93;;
16484;SDS011;8353;47.856;12.344;2023-02-08T08:45:08;13.33;;;7.10;;
16484;SDS011;8353;47.856;12.344;2023-02-08T08:47:39;17.80;;;7.20;;
16484;SDS011;8353;47.856;12.344;2023-02-08T08:50:10;14.80;;;8.07;;
16484;SDS011;8353;47.856;12.344;2023-02-08T08:52:40;14.87;;;8.70;;
16484;SDS011;8353;47.856;12.344;2023-02-08T08:55:12;10.03;;;6.47;;
16484;SDS011;8353;47.856;12.344;2023-02-08T08:57:42;14.67;;;8.03;;
16484;SDS011;8353;47.856;12.344;2023-02-08T09:00:13;14.83;;;8.23;;
16484;SDS011;8353;47.856;12.344;2023-02-08T09:02:45;11.60;;;7.53;;
16484;SDS011;8353;47.856;12.344;2023-02-08T09:05:15;11.80;;;6.27;;
16484;SDS011;8353;47.856;12.344;2023-02-08T09:07:46;12.97;;;7.13;;
16484;SDS011;8353;47.856;12.344;2023-02-08T09:10:18;10.77;;;7.20;;
16484;SDS011;8353;47.856;12.344;2023-02-08T09:12:48;11.43;;;7.20;;
16484;SDS011;8353;47.856;12.344;2023-02-08T09:15:20;12.33;;;7.63;;
16484;SDS011;8353;47.856;12.344;2023-02-08T09:17:51;12.47;;;7.57;;
16484;SDS011;8353;47.856;12.344;2023-02-08T09:20:21;13.10;;;8.20;;
16484;SDS011;8353;47.856;12.344;2023-02-08T09:22:52;12.57;;;7.53;;
16484;SDS011;8353;47.856;12.344;2023-02-08T09:25:23;13.87;;;7.67;;
16484;SDS011;8353;47.856;12.344;2023-02-08T09:27:55;12.30;;;7.33;;
16484;SDS011;8353;47.856;12.344;2023-02-08T09:30:25;13.67;;;7.40;;
16484;SDS011;8353;47.856;12.344;2023-02-08T09:32:55;13.47;;;7.50;;
16484;SDS011;8353;47.856;12.344;2023-02-08T09:35:26;16.17;;;8.60;;
16484;SDS011;8353;47.856;12.344;2023-02-08T09:37:56;9.70;;;6.50;;
16484;SDS011;8353;47.856;12.344;2023-02-08T09:40:32;14.57;;;7.53;;
16484;SDS011;8353;47.856;12.344;2023-02-08T09:43:08;11.70;;;7.43;;
16484;SDS011;8353;47.856;12.344;2023-02-08T09:45:48;14.37;;;7.73;;
16484;SDS011;8353;47.856;12.344;2023-02-08T09:48:25;13.60;;;7.77;;
16484;SDS011;8353;47.856;12.344;2023-02-08T09:51:02;11.03;;;7.53;;
16484;SDS011;8353;47.856;12.344;2023-02-08T09:53:38;9.50;;;5.40;;
16484;SDS011;8353;47.856;12.344;2023-02-08T09:56:14;15.93;;;7.67;;
16484;SDS011;8353;47.856;12.344;2023-02-08T09:58:48;9.93;;;6.27;;
16484;SDS011;8353;47.856;12.344;2023-02-08T10:01:21;10.30;;;7.37;;
16484;SDS011;8353;47.856;12.344;2023-02-08T10:03:54;14.27;;;9.00;;
16484;SDS011;8353;47.856;12.344;2023-02-08T10:06:28;18.87;;;5.90;;
16484;SDS011;8353;47.856;12.344;2023-02-08T10:09:00;11.77;;;8.03;;
16484;SDS011;8353;47.856;12.344;2023-02-08T10:11:47;14.47;;;9.50;;
16484;SDS011;8353;47.856;12.344;2023-02-08T10:14:38;16.90;;;9.43;;
16484;SDS011;8353;47.856;12.344;2023-02-08T10:17:22;13.47;;;8.17;;
16484;SDS011;8353;47.856;12.344;2023-02-08T10:20:08;16.37;;;9.53;;
16484;SDS011;8353;47.856;12.344;2023-02-08T10:22:49;14.23;;;8.83;;
16484;SDS011;8353;47.856;12.344;2023-02-08T10:25:32;11.00;;;6.43;;
16484;SDS011;8353;47.856;12.344;2023-02-08T10:28:25;16.43;;;8.43;;
16484;SDS011;8353;47.856;12.344;2023-02-08T10:31:11;10.83;;;6.87;;
16484;SDS011;8353;47.856;12.344;2023-02-08T10:33:50;11.80;;;7.40;;
16484;SDS011;8353;47.856;12.344;2023-02-08T10:36:28;13.87;;;8.43;;
16484;SDS011;8353;47.856;12.344;2023-02-08T10:39:01;20.07;;;10.53;;
16484;SDS011;8353;47.856;12.344;2023-02-08T10:41:39;18.40;;;10.53;;
16484;SDS011;8353;47.856;12.344;2023-02-08T10:44:14;14.70;;;8.93;;
16484;SDS011;8353;47.856;12.344;2023-02-08T10:46:55;14.50;;;10.30;;
16484;SDS011;8353;47.856;12.344;2023-02-08T10:49:32;16.20;;;10.70;;
16484;SDS011;8353;47.856;12.344;2023-02-08T10:52:07;12.80;;;8.00;;
16484;SDS011;8353;47.856;12.344;2023-02-08T10:54:38;17.53;;;10.10;;
16484;SDS011;8353;47.856;12.344;2023-02-08T10:57:10;14.17;;;8.77;;
16484;SDS011;8353;47.856;12.344;2023-02-08T10:59:48;14.40;;;9.40;;
16484;SDS011;8353;47.856;12.344;2023-02-08T11:02:21;15.90;;;8.80;;
16484;SDS011;8353;47.856;12.344;2023-02-08T11:04:57;20.60;;;11.43;;
16484;SDS011;8353;47.856;12.344;2023-02-08T11:07:30;13.30;;;8.10;;
16484;SDS011;8353;47.856;12.344;2023-02-08T11:10:15;16.13;;;10.53;;
16484;SDS011;8353;47.856;12.344;2023-02-08T11:12:55;15.53;;;8.27;;
16484;SDS011;8353;47.856;12.344;2023-02-08T11:15:30;14.30;;;7.47;;
16484;SDS011;8353;47.856;12.344;2023-02-08T11:18:06;17.83;;;11.17;;
16484;SDS011;8353;47.856;12.344;2023-02-08T11:20:48;16.07;;;10.47;;
16484;SDS011;8353;47.856;12.344;2023-02-08T11:23:22;17.53;;;10.13;;
16484;SDS011;8353;47.856;12.344;2023-02-08T11:26:11;15.03;;;10.23;;
16484;SDS011;8353;47.856;12.344;2023-02-08T11:28:49;16.20;;;11.17;;
16484;SDS011;8353;47.856;12.344;2023-02-08T11:31:30;14.23;;;9.70;;
16484;SDS011;8353;47.856;12.344;2023-02-08T11:34:04;14.03;;;9.50;;
16484;SDS011;8353;47.856;12.344;2023-02-08T11:36:42;20.70;;;12.60;;
16484;SDS011;8353;47.856;12.344;2023-02-08T11:39:16;16.07;;;10.90;;
16484;SDS011;8353;47.856;12.344;2023-02-08T11:41:52;21.33;;;12.93;;
16484;SDS011;8353;47.856;12.344;2023-02-08T11:44:26;16.77;;;11.07;;
16484;SDS011;8353;47.856;12.344;2023-02-08T11:47:00;18.67;;;12.50;;
16484;SDS011;8353;47.856;12.344;2023-02-08T11:49:35;18.63;;;11.47;;
16484;SDS011;8353;47.856;12.344;2023-02-08T11:52:17;17.17;;;10.63;;
16484;SDS011;8353;47.856;12.344;2023-02-08T11:54:50;16.07;;;11.07;;
16484;SDS011;8353;47.856;12.344;2023-02-08T11:57:22;15.30;;;9.67;;
16484;SDS011;8353;47.856;12.344;2023-02-08T12:02:48;20.23;;;12.90;;
16484;SDS011;8353;47.856;12.344;2023-02-08T12:05:20;20.77;;;11.97;;
16484;SDS011;8353;47.856;12.344;2023-02-08T12:07:58;13.40;;;10.30;;
16484;SDS011;8353;47.856;12.344;2023-02-08T12:10:45;19.47;;;10.17;;
16484;SDS011;8353;47.856;12.344;2023-02-08T12:13:42;13.47;;;9.03;;
16484;SDS011;8353;47.856;12.344;2023-02-08T12:16:30;23.60;;;13.83;;
16484;SDS011;8353;47.856;12.344;2023-02-08T12:22:31;19.07;;;12.90;;
16484;SDS011;8353;47.856;12.344;2023-02-08T12:25:13;18.47;;;11.63;;
16484;SDS011;8353;47.856;12.344;2023-02-08T12:27:53;21.17;;;13.23;;
16484;SDS011;8353;47.856;12.344;2023-02-08T12:30:31;16.83;;;9.20;;
16484;SDS011;8353;47.856;12.344;2023-02-08T12:33:23;16.10;;;11.60;;
16484;SDS011;8353;47.856;12.344;2023-02-08T12:36:16;19.17;;;13.03;;
16484;SDS011;8353;47.856;12.344;2023-02-08T12:39:01;19.67;;;12.73;;
16484;SDS011;8353;47.856;12.344;2023-02-08T12:42:10;19.53;;;12.43;;
16484;SDS011;8353;47.856;12.344;2023-02-08T12:44:52;17.43;;;11.70;;
16484;SDS011;8353;47.856;12.344;2023-02-08T12:47:36;16.70;;;11.37;;
16484;SDS011;8353;47.856;12.344;2023-02-08T12:50:16;17.37;;;11.87;;
16484;SDS011;8353;47.856;12.344;2023-02-08T12:52:55;17.20;;;11.37;;
16484;SDS011;8353;47.856;12.344;2023-02-08T12:55:32;17.43;;;12.17;;
16484;SDS011;8353;47.856;12.344;2023-02-08T12:58:20;20.80;;;13.47;;
16484;SDS011;8353;47.856;12.344;2023-02-08T13:00:56;19.93;;;11.53;;
16484;SDS011;8353;47.856;12.344;2023-02-08T13:03:31;20.23;;;12.40;;
16484;SDS011;8353;47.856;12.344;2023-02-08T13:06:05;15.07;;;10.03;;
16484;SDS011;8353;47.856;12.344;2023-02-08T13:08:43;17.90;;;12.87;;
16484;SDS011;8353;47.856;12.344;2023-02-08T13:11:19;18.10;;;11.93;;
16484;SDS011;8353;47.856;12.344;2023-02-08T13:13:57;25.83;;;13.33;;
16484;SDS011;8353;47.856;12.344;2023-02-08T13:16:31;19.33;;;12.27;;
16484;SDS011;8353;47.856;12.344;2023-02-08T13:19:17;17.33;;;11.40;;
16484;SDS011;8353;47.856;12.344;2023-02-08T13:21:53;18.77;;;12.13;;
16484;SDS011;8353;47.856;12.344;2023-02-08T13:24:26;18.17;;;12.47;;
16484;SDS011;8353;47.856;12.344;2023-02-08T13:27:02;23.43;;;14.03;;
16484;SDS011;8353;47.856;12.344;2023-02-08T13:29:35;18.13;;;11.43;;
16484;SDS011;8353;47.856;12.344;2023-02-08T13:32:07;14.43;;;8.47;;
16484;SDS011;8353;47.856;12.344;2023-02-08T13:34:43;22.00;;;13.07;;
16484;SDS011;8353;47.856;12.344;2023-02-08T13:37:19;16.43;;;11.37;;
16484;SDS011;8353;47.856;12.344;2023-02-08T13:39:56;20.17;;;11.80;;
16484;SDS011;8353;47.856;12.344;2023-02-08T13:42:32;13.13;;;8.50;;
16484;SDS011;8353;47.856;12.344;2023-02-08T13:45:05;12.67;;;9.30;;
16484;SDS011;8353;47.856;12.344;2023-02-08T13:47:40;16.17;;;9.67;;
16484;SDS011;8353;47.856;12.344;2023-02-08T13:53:09;15.77;;;10.80;;
16484;SDS011;8353;47.856;12.344;2023-02-08T13:55:53;15.27;;;9.67;;
16484;SDS011;8353;47.856;12.344;2023-02-08T13:58:36;18.07;;;11.40;;
16484;SDS011;8353;47.856;12.344;2023-02-08T14:01:32;14.87;;;10.07;;
16484;SDS011;8353;47.856;12.344;2023-02-08T14:04:15;13.47;;;9.57;;
16484;SDS011;8353;47.856;12.344;2023-02-08T14:07:05;15.20;;;11.00;;
16484;SDS011;8353;47.856;12.344;2023-02-08T14:09:50;12.33;;;9.00;;
16484;SDS011;8353;47.856;12.344;2023-02-08T14:12:34;16.47;;;11.93;;
16484;SDS011;8353;47.856;12.344;2023-02-08T14:15:28;12.33;;;7.77;;
16484;SDS011;8353;47.856;12.344;2023-02-08T14:18:00;12.13;;;7.37;;
16484;SDS011;8353;47.856;12.344;2023-02-08T14:20:34;17.00;;;11.13;;
16484;SDS011;8353;47.856;12.344;2023-02-08T14:23:19;17.67;;;11.70;;
16484;SDS011;8353;47.856;12.344;2023-02-08T14:25:52;20.90;;;12.80;;
16484;SDS011;8353;47.856;12.344;2023-02-08T14:28:26;14.70;;;8.90;;
16484;SDS011;8353;47.856;12.344;2023-02-08T14:31:03;19.07;;;11.87;;
16484;SDS011;8353;47.856;12.344;2023-02-08T14:33:37;19.30;;;12.20;;
16484;SDS011;8353;47.856;12.344;2023-02-08T14:36:18;11.03;;;7.90;;
16484;SDS011;8353;47.856;12.344;2023-02-08T14:41:56;12.97;;;8.47;;
16484;SDS011;8353;47.856;12.344;2023-02-08T14:50:58;16.33;;;10.20;;
16484;SDS011;8353;47.856;12.344;2023-02-08T14:53:38;12.90;;;8.87;;
16484;SDS011;8353;47.856;12.344;2023-02-08T14:56:13;13.30;;;8.83;;
16484;SDS011;8353;47.856;12.344;2023-02-08T14:58:48;14.07;;;9.53;;
16484;SDS011;8353;47.856;12.344;2023-02-08T15:01:20;14.90;;;9.77;;
16484;SDS011;8353;47.856;12.344;2023-02-08T15:03:59;15.63;;;10.20;;
16484;SDS011;8353;47.856;12.344;2023-02-08T15:06:40;11.87;;;8.57;;
16484;SDS011;8353;47.856;12.344;2023-02-08T15:09:34;13.23;;;7.87;;
16484;SDS011;8353;47.856;12.344;2023-02-08T15:12:09;13.23;;;8.40;;
16484;SDS011;8353;47.856;12.344;2023-02-08T15:14:46;14.03;;;10.40;;
16484;SDS011;8353;47.856;12.344;2023-02-08T15:17:18;15.23;;;9.90;;
16484;SDS011;8353;47.856;12.344;2023-02-08T15:19:58;14.57;;;8.87;;
16484;SDS011;8353;47.856;12.344;2023-02-08T15:22:32;12.73;;;9.23;;
16484;SDS011;8353;47.856;12.344;2023-02-08T15:25:13;15.27;;;10.07;;
16484;SDS011;8353;47.856;12.344;2023-02-08T15:27:51;14.80;;;7.67;;
16484;SDS011;8353;47.856;12.344;2023-02-08T15:30:24;14.93;;;10.00;;
16484;SDS011;8353;47.856;12.344;2023-02-08T15:32:58;13.40;;;8.47;;
16484;SDS011;8353;47.856;12.344;2023-02-08T15:35:30;13.03;;;9.17;;
16484;SDS011;8353;47.856;12.344;2023-02-08T15:38:04;17.00;;;10.17;;
16484;SDS011;8353;47.856;12.344;2023-02-08T15:40:58;15.37;;;9.03;;
16484;SDS011;8353;47.856;12.344;2023-02-08T15:43:31;14.57;;;10.03;;